sensor_id;sensor_type;location;lat;lon;timestamp;pressure;altitude;pressure_sealevel;temperature;humidity
78679;BME280;67994;59.334;13.528;2024-02-04T00:00:00;98900.0;;;4.8;66.0
78679;BME280;67994;59.334;13.528;2024-02-04T00:01:00;98900.0;;;4.9;66.0
78679;BME280;67994;59.334;13.528;2024-02-04T00:02:00;98900.0;;;4.8;66.2
78679;BME280;67994;59.334;13.528;2024-02-04T00:03:00;98900.0;;;4.7;66.2
78679;BME280;67994;59.334;13.528;2024-02-04T00:04:00;98900.0;;;4.7;66.2
78679;BME280;67994;59.334;13.528;2024-02-04T00:05:00;98900.0;;;4.7;66.1
78679;BME280;67994;59.334;13.528;2024-02-04T00:06:00;98900.0;;;4.7;65.9
78679;BME280;67994;59.334;13.528;2024-02-04T00:07:00;98900.0;;;4.5;66.4
78679;BME280;67994;59.334;13.528;2024-02-04T00:08:00;98900.0;;;4.7;65.8
78679;BME280;67994;59.334;13.528;2024-02-04T00:09:00;98900.0;;;4.7;65.7
78679;BME280;67994;59.334;13.528;2024-02-04T00:10:00;98900.0;;;4.7;65.6
78679;BME280;67994;59.334;13.528;2024-02-04T00:11:00;98900.0;;;4.7;65.6
78679;BME280;67994;59.334;13.528;2024-02-04T00:12:00;98900.0;;;4.7;65.5
78679;BME280;67994;59.334;13.528;2024-02-04T00:13:00;99000.0;;;4.7;65.2
78679;BME280;67994;59.334;13.528;2024-02-04T00:14:00;98900.0;;;4.8;65.2
78679;BME280;67994;59.334;13.528;2024-02-04T00:15:00;98900.0;;;4.8;65.2
78679;BME280;67994;59.334;13.528;2024-02-04T00:16:00;98900.0;;;4.7;65.3
78679;BME280;67994;59.334;13.528;2024-02-04T00:17:00;98900.0;;;4.8;65.2
78679;BME280;67994;59.334;13.528;2024-02-04T00:18:00;98900.0;;;4.6;65.5
78679;BME280;67994;59.334;13.528;2024-02-04T00:19:00;98900.0;;;4.7;65.5
78679;BME280;67994;59.334;13.528;2024-02-04T00:20:00;98900.0;;;4.6;65.6
78679;BME280;67994;59.334;13.528;2024-02-04T00:21:00;98900.0;;;4.8;65.5
78679;BME280;67994;59.334;13.528;2024-02-04T00:22:00;98900.0;;;4.8;65.4
78679;BME280;67994;59.334;13.528;2024-02-04T00:23:00;98900.0;;;4.8;65.3
78679;BME280;67994;59.334;13.528;2024-02-04T00:24:00;98900.0;;;4.8;65.3
78679;BME280;67994;59.334;13.528;2024-02-04T00:25:00;98900.0;;;4.8;65.5
78679;BME280;67994;59.334;13.528;2024-02-04T00:26:00;98900.0;;;4.7;65.3
78679;BME280;67994;59.334;13.528;2024-02-04T00:27:00;98900.0;;;4.8;65.1
78679;BME280;67994;59.334;13.528;2024-02-04T00:28:00;98900.0;;;4.8;65.0
78679;BME280;67994;59.334;13.528;2024-02-04T00:29:00;98900.0;;;4.7;65.2
78679;BME280;67994;59.334;13.528;2024-02-04T00:30:00;98900.0;;;4.8;64.9
78679;BME280;67994;59.334;13.528;2024-02-04T00:31:00;98900.0;;;4.7;65.1
78679;BME280;67994;59.334;13.528;2024-02-04T00:32:00;98900.0;;;4.6;65.3
78679;BME280;67994;59.334;13.528;2024-02-04T00:33:00;98900.0;;;4.7;64.9
78679;BME280;67994;59.334;13.528;2024-02-04T00:34:00;98900.0;;;4.7;64.9
78679;BME280;67994;59.334;13.528;2024-02-04T00:35:00;98900.0;;;4.7;64.7
78679;BME280;67994;59.334;13.528;2024-02-04T00:36:00;98900.0;;;4.8;64.6
78679;BME280;67994;59.334;13.528;2024-02-04T00:37:00;98900.0;;;4.8;64.6
78679;BME280;67994;59.334;13.528;2024-02-04T00:38:00;98900.0;;;4.8;64.5
78679;BME280;67994;59.334;13.528;2024-02-04T00:39:00;98900.0;;;4.8;64.3
78679;BME280;67994;59.334;13.528;2024-02-04T00:40:00;98900.0;;;4.8;64.4
78679;BME280;67994;59.334;13.528;2024-02-04T00:41:00;98900.0;;;4.8;64.3
78679;BME280;67994;59.334;13.528;2024-02-04T00:42:00;99000.0;;;4.7;64.5
78679;BME280;67994;59.334;13.528;2024-02-04T00:43:00;99000.0;;;4.8;64.2
78679;BME280;67994;59.334;13.528;2024-02-04T00:44:00;99000.0;;;4.8;64.0
78679;BME280;67994;59.334;13.528;2024-02-04T00:45:00;99000.0;;;4.8;64.0
78679;BME280;67994;59.334;13.528;2024-02-04T00:46:00;99000.0;;;4.9;63.8
78679;BME280;67994;59.334;13.528;2024-02-04T00:47:00;98900.0;;;4.7;64.4
78679;BME280;67994;59.334;13.528;2024-02-04T00:48:00;98900.0;;;4.7;64.4
78679;BME280;67994;59.334;13.528;2024-02-04T00:49:00;98900.0;;;4.7;64.4
78679;BME280;67994;59.334;13.528;2024-02-04T00:50:00;98900.0;;;4.7;64.4
78679;BME280;67994;59.334;13.528;2024-02-04T00:51:00;98900.0;;;4.7;64.2
78679;BME280;67994;59.334;13.528;2024-02-04T00:52:00;98900.0;;;4.8;64.1
78679;BME280;67994;59.334;13.528;2024-02-04T00:53:00;98900.0;;;4.7;64.3
78679;BME280;67994;59.334;13.528;2024-02-04T00:54:00;98900.0;;;4.8;64.1
78679;BME280;67994;59.334;13.528;2024-02-04T00:55:00;99000.0;;;4.8;64.0
78679;BME280;67994;59.334;13.528;2024-02-04T00:56:00;99000.0;;;4.8;63.9
78679;BME280;67994;59.334;13.528;2024-02-04T00:57:00;99000.0;;;4.7;63.9
78679;BME280;67994;59.334;13.528;2024-02-04T00:58:00;98900.0;;;4.7;63.9
78679;BME280;67994;59.334;13.528;2024-02-04T00:59:00;99000.0;;;4.7;63.9
78679;BME280;67994;59.334;13.528;2024-02-04T01:00:00;99000.0;;;4.8;63.6
78679;BME280;67994;59.334;13.528;2024-02-04T01:01:00;99000.0;;;4.8;63.6
78679;BME280;67994;59.334;13.528;2024-02-04T01:02:00;98900.0;;;4.7;63.8
78679;BME280;67994;59.334;13.528;2024-02-04T01:03:00;99000.0;;;4.7;63.8
78679;BME280;67994;59.334;13.528;2024-02-04T01:04:00;99000.0;;;4.7;63.9
78679;BME280;67994;59.334;13.528;2024-02-04T01:05:00;99000.0;;;4.8;63.7
78679;BME280;67994;59.334;13.528;2024-02-04T01:06:00;99000.0;;;4.7;63.7
78679;BME280;67994;59.334;13.528;2024-02-04T01:07:00;99000.0;;;4.7;63.6
78679;BME280;67994;59.334;13.528;2024-02-04T01:08:00;99000.0;;;4.7;63.5
78679;BME280;67994;59.334;13.528;2024-02-04T01:09:00;99000.0;;;4.8;63.6
78679;BME280;67994;59.334;13.528;2024-02-04T01:10:00;99000.0;;;4.7;63.6
78679;BME280;67994;59.334;13.528;2024-02-04T01:11:00;99000.0;;;4.7;63.5
78679;BME280;67994;59.334;13.528;2024-02-04T01:12:00;99000.0;;;4.7;63.5
78679;BME280;67994;59.334;13.528;2024-02-04T01:13:00;99000.0;;;4.7;63.8
78679;BME280;67994;59.334;13.528;2024-02-04T01:14:00;99000.0;;;4.5;63.9
78679;BME280;67994;59.334;13.528;2024-02-04T01:15:00;99000.0;;;4.5;64.0
78679;BME280;67994;59.334;13.528;2024-02-04T01:16:01;98900.0;;;4.5;63.9
78679;BME280;67994;59.334;13.528;2024-02-04T01:17:00;99000.0;;;4.5;63.9
78679;BME280;67994;59.334;13.528;2024-02-04T01:18:00;98900.0;;;4.5;63.9
78679;BME280;67994;59.334;13.528;2024-02-04T01:19:00;99000.0;;;4.6;63.6
78679;BME280;67994;59.334;13.528;2024-02-04T01:20:00;98900.0;;;4.6;63.6
78679;BME280;67994;59.334;13.528;2024-02-04T01:21:00;99000.0;;;4.5;63.7
78679;BME280;67994;59.334;13.528;2024-02-04T01:22:00;99000.0;;;4.5;63.4
78679;BME280;67994;59.334;13.528;2024-02-04T01:23:00;99000.0;;;4.6;63.4
78679;BME280;67994;59.334;13.528;2024-02-04T01:24:00;99000.0;;;4.6;63.5
78679;BME280;67994;59.334;13.528;2024-02-04T01:25:00;99000.0;;;4.6;63.1
78679;BME280;67994;59.334;13.528;2024-02-04T01:26:00;99000.0;;;4.6;62.9
78679;BME280;67994;59.334;13.528;2024-02-04T01:27:00;99000.0;;;4.7;62.5
78679;BME280;67994;59.334;13.528;2024-02-04T01:28:00;99000.0;;;4.6;62.6
78679;BME280;67994;59.334;13.528;2024-02-04T01:29:00;99000.0;;;4.6;62.4
78679;BME280;67994;59.334;13.528;2024-02-04T01:30:00;99000.0;;;4.6;62.3
78679;BME280;67994;59.334;13.528;2024-02-04T01:31:00;99000.0;;;4.6;62.4
78679;BME280;67994;59.334;13.528;2024-02-04T01:32:00;99000.0;;;4.5;62.2
78679;BME280;67994;59.334;13.528;2024-02-04T01:33:00;99000.0;;;4.6;62.1
78679;BME280;67994;59.334;13.528;2024-02-04T01:34:00;99000.0;;;4.5;61.8
78679;BME280;67994;59.334;13.528;2024-02-04T01:35:00;99000.0;;;4.5;61.8
78679;BME280;67994;59.334;13.528;2024-02-04T01:36:00;99000.0;;;4.5;61.2
78679;BME280;67994;59.334;13.528;2024-02-04T01:37:00;99000.0;;;4.5;60.8
78679;BME280;67994;59.334;13.528;2024-02-04T01:38:00;99000.0;;;4.5;60.6
78679;BME280;67994;59.334;13.528;2024-02-04T01:39:00;99000.0;;;4.7;60.3
78679;BME280;67994;59.334;13.528;2024-02-04T01:40:00;99000.0;;;4.7;60.6
78679;BME280;67994;59.334;13.528;2024-02-04T01:41:00;99000.0;;;4.6;60.2
78679;BME280;67994;59.334;13.528;2024-02-04T01:42:00;99000.0;;;4.7;59.7
78679;BME280;67994;59.334;13.528;2024-02-04T01:43:00;99000.0;;;4.8;59.6
78679;BME280;67994;59.334;13.528;2024-02-04T01:44:00;99000.0;;;4.7;59.6
78679;BME280;67994;59.334;13.528;2024-02-04T01:45:00;99000.0;;;4.7;59.6
78679;BME280;67994;59.334;13.528;2024-02-04T01:46:00;99000.0;;;4.7;59.8
78679;BME280;67994;59.334;13.528;2024-02-04T01:47:00;99000.0;;;4.7;59.6
78679;BME280;67994;59.334;13.528;2024-02-04T01:48:00;99000.0;;;4.6;59.7
78679;BME280;67994;59.334;13.528;2024-02-04T01:49:00;99000.0;;;4.6;59.9
78679;BME280;67994;59.334;13.528;2024-02-04T01:50:00;99000.0;;;4.7;59.8
78679;BME280;67994;59.334;13.528;2024-02-04T01:51:01;99000.0;;;4.6;59.9
78679;BME280;67994;59.334;13.528;2024-02-04T01:52:00;99000.0;;;4.7;59.9
78679;BME280;67994;59.334;13.528;2024-02-04T01:53:00;99000.0;;;4.8;59.7
78679;BME280;67994;59.334;13.528;2024-02-04T01:54:00;99000.0;;;4.7;59.9
78679;BME280;67994;59.334;13.528;2024-02-04T01:55:01;99000.0;;;4.7;60.1
78679;BME280;67994;59.334;13.528;2024-02-04T01:56:00;99000.0;;;4.6;59.8
78679;BME280;67994;59.334;13.528;2024-02-04T01:57:00;99000.0;;;4.6;59.9
78679;BME280;67994;59.334;13.528;2024-02-04T01:58:01;98900.0;;;4.7;59.9
78679;BME280;67994;59.334;13.528;2024-02-04T01:59:00;99000.0;;;4.6;59.9
78679;BME280;67994;59.334;13.528;2024-02-04T02:00:00;98900.0;;;4.7;59.9
78679;BME280;67994;59.334;13.528;2024-02-04T02:01:00;98900.0;;;4.6;60.0
78679;BME280;67994;59.334;13.528;2024-02-04T02:02:00;98900.0;;;4.6;60.1
78679;BME280;67994;59.334;13.528;2024-02-04T02:03:01;98900.0;;;4.6;59.8
78679;BME280;67994;59.334;13.528;2024-02-04T02:04:00;98900.0;;;4.6;59.8
78679;BME280;67994;59.334;13.528;2024-02-04T02:05:00;99000.0;;;4.5;59.7
78679;BME280;67994;59.334;13.528;2024-02-04T02:06:00;99000.0;;;4.5;59.7
78679;BME280;67994;59.334;13.528;2024-02-04T02:07:00;99000.0;;;4.5;59.8
78679;BME280;67994;59.334;13.528;2024-02-04T02:08:00;99000.0;;;4.4;59.6
78679;BME280;67994;59.334;13.528;2024-02-04T02:09:00;99000.0;;;4.5;59.3
78679;BME280;67994;59.334;13.528;2024-02-04T02:10:00;99000.0;;;4.6;59.4
78679;BME280;67994;59.334;13.528;2024-02-04T02:11:06;99000.0;;;4.5;59.3
78679;BME280;67994;59.334;13.528;2024-02-04T02:12:06;99000.0;;;4.5;59.3
78679;BME280;67994;59.334;13.528;2024-02-04T02:13:06;99000.0;;;4.4;59.5
78679;BME280;67994;59.334;13.528;2024-02-04T02:14:02;99000.0;;;4.4;59.0
78679;BME280;67994;59.334;13.528;2024-02-04T02:15:06;99000.0;;;4.4;58.9
78679;BME280;67994;59.334;13.528;2024-02-04T02:16:06;99000.0;;;4.3;58.9
78679;BME280;67994;59.334;13.528;2024-02-04T02:17:02;99000.0;;;4.3;58.9
78679;BME280;67994;59.334;13.528;2024-02-04T02:18:04;99000.0;;;4.3;58.7
78679;BME280;67994;59.334;13.528;2024-02-04T02:19:04;99000.0;;;4.5;58.5
78679;BME280;67994;59.334;13.528;2024-02-04T02:20:05;99000.0;;;4.5;58.1
78679;BME280;67994;59.334;13.528;2024-02-04T02:21:13;99000.0;;;4.3;58.3
78679;BME280;67994;59.334;13.528;2024-02-04T02:22:04;99000.0;;;4.3;58.3
78679;BME280;67994;59.334;13.528;2024-02-04T02:23:06;99000.0;;;4.5;58.1
78679;BME280;67994;59.334;13.528;2024-02-04T02:24:05;99000.0;;;4.5;58.1
78679;BME280;67994;59.334;13.528;2024-02-04T02:25:02;99000.0;;;4.4;57.8
78679;BME280;67994;59.334;13.528;2024-02-04T02:26:00;99000.0;;;4.4;57.9
78679;BME280;67994;59.334;13.528;2024-02-04T02:27:01;99000.0;;;4.4;57.8
78679;BME280;67994;59.334;13.528;2024-02-04T02:28:00;99000.0;;;4.3;58.0
78679;BME280;67994;59.334;13.528;2024-02-04T02:29:00;99000.0;;;4.4;57.7
78679;BME280;67994;59.334;13.528;2024-02-04T02:30:00;99000.0;;;4.4;57.7
78679;BME280;67994;59.334;13.528;2024-02-04T02:31:00;99000.0;;;4.5;57.6
78679;BME280;67994;59.334;13.528;2024-02-04T02:32:00;99000.0;;;4.4;57.4
78679;BME280;67994;59.334;13.528;2024-02-04T02:33:00;99000.0;;;4.4;58.4
78679;BME280;67994;59.334;13.528;2024-02-04T02:34:00;99000.0;;;4.3;58.5
78679;BME280;67994;59.334;13.528;2024-02-04T02:35:00;99000.0;;;4.3;58.4
78679;BME280;67994;59.334;13.528;2024-02-04T02:36:02;99000.0;;;4.3;58.3
78679;BME280;67994;59.334;13.528;2024-02-04T02:37:04;99000.0;;;4.4;58.2
78679;BME280;67994;59.334;13.528;2024-02-04T02:38:07;99000.0;;;4.3;58.1
78679;BME280;67994;59.334;13.528;2024-02-04T02:39:08;99000.0;;;4.3;58.1
78679;BME280;67994;59.334;13.528;2024-02-04T02:40:04;99000.0;;;4.3;58.3
78679;BME280;67994;59.334;13.528;2024-02-04T02:41:03;99000.0;;;4.4;57.9
78679;BME280;67994;59.334;13.528;2024-02-04T02:42:02;99000.0;;;4.3;58.1
78679;BME280;67994;59.334;13.528;2024-02-04T02:43:02;99000.0;;;4.4;58.1
78679;BME280;67994;59.334;13.528;2024-02-04T02:44:01;99000.0;;;4.4;57.8
78679;BME280;67994;59.334;13.528;2024-02-04T02:45:01;99000.0;;;4.3;57.8
78679;BME280;67994;59.334;13.528;2024-02-04T02:46:01;99000.0;;;4.4;57.4
78679;BME280;67994;59.334;13.528;2024-02-04T02:47:02;99000.0;;;4.4;57.4
78679;BME280;67994;59.334;13.528;2024-02-04T02:48:00;99000.0;;;4.4;57.6
78679;BME280;67994;59.334;13.528;2024-02-04T02:49:00;99000.0;;;4.3;57.7
78679;BME280;67994;59.334;13.528;2024-02-04T02:50:00;99000.0;;;4.3;57.7
78679;BME280;67994;59.334;13.528;2024-02-04T02:51:00;99000.0;;;4.4;57.8
78679;BME280;67994;59.334;13.528;2024-02-04T02:52:00;99000.0;;;4.4;57.7
78679;BME280;67994;59.334;13.528;2024-02-04T02:53:00;99000.0;;;4.4;57.7
78679;BME280;67994;59.334;13.528;2024-02-04T02:54:00;99000.0;;;4.3;58.0
78679;BME280;67994;59.334;13.528;2024-02-04T02:55:00;99000.0;;;4.4;58.0
78679;BME280;67994;59.334;13.528;2024-02-04T02:56:00;99000.0;;;4.3;58.0
78679;BME280;67994;59.334;13.528;2024-02-04T02:57:00;99000.0;;;4.3;58.7
78679;BME280;67994;59.334;13.528;2024-02-04T02:58:00;99000.0;;;4.1;58.7
78679;BME280;67994;59.334;13.528;2024-02-04T02:59:00;99000.0;;;4.2;58.3
78679;BME280;67994;59.334;13.528;2024-02-04T03:00:00;99000.0;;;4.3;58.5
78679;BME280;67994;59.334;13.528;2024-02-04T03:01:00;99000.0;;;4.3;58.4
78679;BME280;67994;59.334;13.528;2024-02-04T03:02:00;99000.0;;;4.3;58.1
78679;BME280;67994;59.334;13.528;2024-02-04T03:03:00;99000.0;;;4.4;58.2
78679;BME280;67994;59.334;13.528;2024-02-04T03:04:00;99000.0;;;4.4;58.3
78679;BME280;67994;59.334;13.528;2024-02-04T03:05:00;99000.0;;;4.3;58.4
78679;BME280;67994;59.334;13.528;2024-02-04T03:06:01;99000.0;;;4.3;58.6
78679;BME280;67994;59.334;13.528;2024-02-04T03:07:00;99000.0;;;4.2;58.8
78679;BME280;67994;59.334;13.528;2024-02-04T03:08:00;99000.0;;;4.2;59.1
78679;BME280;67994;59.334;13.528;2024-02-04T03:09:00;99000.0;;;4.3;58.9
78679;BME280;67994;59.334;13.528;2024-02-04T03:10:00;99000.0;;;4.3;59.1
78679;BME280;67994;59.334;13.528;2024-02-04T03:11:00;99000.0;;;4.3;59.1
78679;BME280;67994;59.334;13.528;2024-02-04T03:12:00;99000.0;;;4.3;59.2
78679;BME280;67994;59.334;13.528;2024-02-04T03:13:00;99000.0;;;4.3;59.4
78679;BME280;67994;59.334;13.528;2024-02-04T03:14:00;98900.0;;;4.3;59.3
78679;BME280;67994;59.334;13.528;2024-02-04T03:15:00;98900.0;;;4.3;59.5
78679;BME280;67994;59.334;13.528;2024-02-04T03:16:00;98900.0;;;4.2;59.7
78679;BME280;67994;59.334;13.528;2024-02-04T03:17:00;98900.0;;;4.4;59.7
78679;BME280;67994;59.334;13.528;2024-02-04T03:18:00;98900.0;;;4.3;59.8
78679;BME280;67994;59.334;13.528;2024-02-04T03:19:00;98900.0;;;4.3;60.0
78679;BME280;67994;59.334;13.528;2024-02-04T03:20:00;98900.0;;;4.3;59.7
78679;BME280;67994;59.334;13.528;2024-02-04T03:21:00;98900.0;;;4.3;59.8
78679;BME280;67994;59.334;13.528;2024-02-04T03:22:00;98900.0;;;4.3;59.9
78679;BME280;67994;59.334;13.528;2024-02-04T03:23:00;98900.0;;;4.2;60.2
78679;BME280;67994;59.334;13.528;2024-02-04T03:24:00;98900.0;;;4.2;60.3
78679;BME280;67994;59.334;13.528;2024-02-04T03:25:00;98900.0;;;4.1;60.5
78679;BME280;67994;59.334;13.528;2024-02-04T03:26:00;98900.0;;;4.2;60.6
78679;BME280;67994;59.334;13.528;2024-02-04T03:27:00;98900.0;;;4.2;60.4
78679;BME280;67994;59.334;13.528;2024-02-04T03:28:00;98900.0;;;4.2;60.4
78679;BME280;67994;59.334;13.528;2024-02-04T03:29:00;98900.0;;;4.2;60.6
78679;BME280;67994;59.334;13.528;2024-02-04T03:30:00;98900.0;;;4.2;60.7
78679;BME280;67994;59.334;13.528;2024-02-04T03:31:00;98900.0;;;4.3;60.6
78679;BME280;67994;59.334;13.528;2024-02-04T03:32:01;98900.0;;;4.2;61.0
78679;BME280;67994;59.334;13.528;2024-02-04T03:33:00;98900.0;;;4.1;61.2
78679;BME280;67994;59.334;13.528;2024-02-04T03:34:00;98900.0;;;4.1;61.2
78679;BME280;67994;59.334;13.528;2024-02-04T03:35:00;98900.0;;;4.1;61.3
78679;BME280;67994;59.334;13.528;2024-02-04T03:36:00;98900.0;;;4.1;61.4
78679;BME280;67994;59.334;13.528;2024-02-04T03:37:00;98900.0;;;4.0;61.7
78679;BME280;67994;59.334;13.528;2024-02-04T03:38:00;98900.0;;;4.0;61.7
78679;BME280;67994;59.334;13.528;2024-02-04T03:39:00;98900.0;;;4.0;61.9
78679;BME280;67994;59.334;13.528;2024-02-04T03:40:00;98900.0;;;4.0;61.8
78679;BME280;67994;59.334;13.528;2024-02-04T03:41:00;98900.0;;;4.1;61.8
78679;BME280;67994;59.334;13.528;2024-02-04T03:42:00;98900.0;;;4.0;62.0
78679;BME280;67994;59.334;13.528;2024-02-04T03:43:00;98900.0;;;4.2;61.9
78679;BME280;67994;59.334;13.528;2024-02-04T03:44:00;98900.0;;;4.1;62.1
78679;BME280;67994;59.334;13.528;2024-02-04T03:45:00;98900.0;;;4.2;61.8
78679;BME280;67994;59.334;13.528;2024-02-04T03:46:00;98900.0;;;4.1;61.9
78679;BME280;67994;59.334;13.528;2024-02-04T03:47:00;98900.0;;;4.1;61.9
78679;BME280;67994;59.334;13.528;2024-02-04T03:48:00;98900.0;;;4.2;62.0
78679;BME280;67994;59.334;13.528;2024-02-04T03:49:00;98900.0;;;4.1;62.2
78679;BME280;67994;59.334;13.528;2024-02-04T03:50:00;98900.0;;;4.1;62.3
78679;BME280;67994;59.334;13.528;2024-02-04T03:51:00;98900.0;;;4.2;62.2
78679;BME280;67994;59.334;13.528;2024-02-04T03:52:00;98900.0;;;4.2;62.2
78679;BME280;67994;59.334;13.528;2024-02-04T03:53:00;98900.0;;;4.2;62.2
78679;BME280;67994;59.334;13.528;2024-02-04T03:54:00;98900.0;;;4.3;62.2
78679;BME280;67994;59.334;13.528;2024-02-04T03:55:00;98900.0;;;4.2;62.4
78679;BME280;67994;59.334;13.528;2024-02-04T03:56:00;98900.0;;;4.2;62.4
78679;BME280;67994;59.334;13.528;2024-02-04T03:57:00;98900.0;;;4.2;62.5
78679;BME280;67994;59.334;13.528;2024-02-04T03:58:00;98900.0;;;4.2;62.8
78679;BME280;67994;59.334;13.528;2024-02-04T03:59:00;98900.0;;;4.2;62.9
78679;BME280;67994;59.334;13.528;2024-02-04T04:00:00;98900.0;;;4.3;62.8
78679;BME280;67994;59.334;13.528;2024-02-04T04:01:00;98900.0;;;4.3;62.8
78679;BME280;67994;59.334;13.528;2024-02-04T04:02:00;98900.0;;;4.2;63.2
78679;BME280;67994;59.334;13.528;2024-02-04T04:03:00;98900.0;;;4.2;63.3
78679;BME280;67994;59.334;13.528;2024-02-04T04:04:00;98900.0;;;4.1;63.5
78679;BME280;67994;59.334;13.528;2024-02-04T04:05:00;98900.0;;;4.1;63.7
78679;BME280;67994;59.334;13.528;2024-02-04T04:06:00;98900.0;;;4.2;63.5
78679;BME280;67994;59.334;13.528;2024-02-04T04:07:00;98900.0;;;4.1;63.6
78679;BME280;67994;59.334;13.528;2024-02-04T04:08:00;98900.0;;;4.2;63.7
78679;BME280;67994;59.334;13.528;2024-02-04T04:09:00;98900.0;;;4.2;64.0
78679;BME280;67994;59.334;13.528;2024-02-04T04:10:00;98900.0;;;4.2;63.9
78679;BME280;67994;59.334;13.528;2024-02-04T04:11:00;98900.0;;;4.1;64.2
78679;BME280;67994;59.334;13.528;2024-02-04T04:12:00;98900.0;;;4.2;64.2
78679;BME280;67994;59.334;13.528;2024-02-04T04:13:00;98900.0;;;4.0;64.6
78679;BME280;67994;59.334;13.528;2024-02-04T04:14:00;98900.0;;;4.1;64.4
78679;BME280;67994;59.334;13.528;2024-02-04T04:15:00;98900.0;;;4.2;64.4
78679;BME280;67994;59.334;13.528;2024-02-04T04:16:00;98900.0;;;4.1;64.5
78679;BME280;67994;59.334;13.528;2024-02-04T04:17:00;98900.0;;;4.2;64.4
78679;BME280;67994;59.334;13.528;2024-02-04T04:18:00;98900.0;;;4.1;64.7
78679;BME280;67994;59.334;13.528;2024-02-04T04:19:00;98900.0;;;4.1;64.8
78679;BME280;67994;59.334;13.528;2024-02-04T04:20:00;98900.0;;;4.2;64.6
78679;BME280;67994;59.334;13.528;2024-02-04T04:21:01;98900.0;;;4.3;64.6
78679;BME280;67994;59.334;13.528;2024-02-04T04:22:01;98900.0;;;4.2;64.7
78679;BME280;67994;59.334;13.528;2024-02-04T04:23:00;98900.0;;;4.3;64.7
78679;BME280;67994;59.334;13.528;2024-02-04T04:24:00;98900.0;;;4.2;64.9
78679;BME280;67994;59.334;13.528;2024-02-04T04:25:00;98900.0;;;4.2;65.0
78679;BME280;67994;59.334;13.528;2024-02-04T04:26:00;98900.0;;;4.2;65.2
78679;BME280;67994;59.334;13.528;2024-02-04T04:27:00;98900.0;;;4.2;65.1
78679;BME280;67994;59.334;13.528;2024-02-04T04:28:00;98900.0;;;4.1;65.4
78679;BME280;67994;59.334;13.528;2024-02-04T04:29:00;98900.0;;;4.2;65.2
78679;BME280;67994;59.334;13.528;2024-02-04T04:30:00;98900.0;;;4.3;65.1
78679;BME280;67994;59.334;13.528;2024-02-04T04:31:00;98900.0;;;4.3;65.1
78679;BME280;67994;59.334;13.528;2024-02-04T04:32:00;98900.0;;;4.3;65.2
78679;BME280;67994;59.334;13.528;2024-02-04T04:33:00;98900.0;;;4.2;65.5
78679;BME280;67994;59.334;13.528;2024-02-04T04:34:00;98900.0;;;4.2;65.3
78679;BME280;67994;59.334;13.528;2024-02-04T04:35:00;98900.0;;;4.2;65.5
78679;BME280;67994;59.334;13.528;2024-02-04T04:36:00;98900.0;;;4.2;65.7
78679;BME280;67994;59.334;13.528;2024-02-04T04:37:00;98900.0;;;4.2;65.7
78679;BME280;67994;59.334;13.528;2024-02-04T04:38:00;98900.0;;;4.2;65.6
78679;BME280;67994;59.334;13.528;2024-02-04T04:39:00;98900.0;;;4.3;65.5
78679;BME280;67994;59.334;13.528;2024-02-04T04:40:00;98900.0;;;4.2;65.8
78679;BME280;67994;59.334;13.528;2024-02-04T04:41:00;98900.0;;;4.1;66.0
78679;BME280;67994;59.334;13.528;2024-02-04T04:42:00;98900.0;;;4.3;65.7
78679;BME280;67994;59.334;13.528;2024-02-04T04:43:00;98900.0;;;4.2;66.0
78679;BME280;67994;59.334;13.528;2024-02-04T04:44:00;98900.0;;;4.2;65.9
78679;BME280;67994;59.334;13.528;2024-02-04T04:45:00;98900.0;;;4.3;65.9
78679;BME280;67994;59.334;13.528;2024-02-04T04:46:01;98900.0;;;4.2;66.0
78679;BME280;67994;59.334;13.528;2024-02-04T04:47:00;98900.0;;;4.4;65.7
78679;BME280;67994;59.334;13.528;2024-02-04T04:48:00;98900.0;;;4.3;65.9
78679;BME280;67994;59.334;13.528;2024-02-04T04:49:00;98900.0;;;4.3;65.8
78679;BME280;67994;59.334;13.528;2024-02-04T04:50:00;98900.0;;;4.3;65.8
78679;BME280;67994;59.334;13.528;2024-02-04T04:51:00;98900.0;;;4.3;65.8
78679;BME280;67994;59.334;13.528;2024-02-04T04:52:00;98900.0;;;4.4;65.8
78679;BME280;67994;59.334;13.528;2024-02-04T04:53:00;98900.0;;;4.4;65.6
78679;BME280;67994;59.334;13.528;2024-02-04T04:54:00;98900.0;;;4.4;65.7
78679;BME280;67994;59.334;13.528;2024-02-04T04:55:00;98900.0;;;4.4;65.7
78679;BME280;67994;59.334;13.528;2024-02-04T04:56:00;98900.0;;;4.4;65.6
78679;BME280;67994;59.334;13.528;2024-02-04T04:57:00;98800.0;;;4.5;65.5
78679;BME280;67994;59.334;13.528;2024-02-04T04:58:00;98900.0;;;4.4;65.7
78679;BME280;67994;59.334;13.528;2024-02-04T04:59:00;98800.0;;;4.6;65.4
78679;BME280;67994;59.334;13.528;2024-02-04T05:00:00;98800.0;;;4.5;65.5
78679;BME280;67994;59.334;13.528;2024-02-04T05:01:00;98800.0;;;4.4;65.8
78679;BME280;67994;59.334;13.528;2024-02-04T05:02:00;98800.0;;;4.6;65.5
78679;BME280;67994;59.334;13.528;2024-02-04T05:03:00;98800.0;;;4.4;65.9
78679;BME280;67994;59.334;13.528;2024-02-04T05:04:00;98800.0;;;4.5;65.7
78679;BME280;67994;59.334;13.528;2024-02-04T05:05:00;98800.0;;;4.5;65.7
78679;BME280;67994;59.334;13.528;2024-02-04T05:06:00;98800.0;;;4.6;65.7
78679;BME280;67994;59.334;13.528;2024-02-04T05:07:00;98800.0;;;4.5;65.8
78679;BME280;67994;59.334;13.528;2024-02-04T05:08:00;98800.0;;;4.5;66.0
78679;BME280;67994;59.334;13.528;2024-02-04T05:09:00;98800.0;;;4.5;65.9
78679;BME280;67994;59.334;13.528;2024-02-04T05:10:00;98800.0;;;4.6;65.5
78679;BME280;67994;59.334;13.528;2024-02-04T05:11:00;98800.0;;;4.4;66.1
78679;BME280;67994;59.334;13.528;2024-02-04T05:12:00;98800.0;;;4.5;66.1
78679;BME280;67994;59.334;13.528;2024-02-04T05:13:00;98800.0;;;4.5;66.1
78679;BME280;67994;59.334;13.528;2024-02-04T05:14:00;98800.0;;;4.4;66.3
78679;BME280;67994;59.334;13.528;2024-02-04T05:15:00;98800.0;;;4.4;66.4
78679;BME280;67994;59.334;13.528;2024-02-04T05:16:00;98800.0;;;4.5;66.4
78679;BME280;67994;59.334;13.528;2024-02-04T05:17:00;98800.0;;;4.4;66.4
78679;BME280;67994;59.334;13.528;2024-02-04T05:18:00;98800.0;;;4.5;66.4
78679;BME280;67994;59.334;13.528;2024-02-04T05:19:00;98800.0;;;4.6;66.3
78679;BME280;67994;59.334;13.528;2024-02-04T05:20:00;98800.0;;;4.6;66.2
78679;BME280;67994;59.334;13.528;2024-02-04T05:21:01;98800.0;;;4.6;66.3
78679;BME280;67994;59.334;13.528;2024-02-04T05:22:00;98800.0;;;4.6;66.2
78679;BME280;67994;59.334;13.528;2024-02-04T05:23:00;98800.0;;;4.6;66.1
78679;BME280;67994;59.334;13.528;2024-02-04T05:24:00;98800.0;;;4.6;66.4
78679;BME280;67994;59.334;13.528;2024-02-04T05:25:00;98800.0;;;4.6;66.4
78679;BME280;67994;59.334;13.528;2024-02-04T05:26:02;98800.0;;;4.6;66.3
78679;BME280;67994;59.334;13.528;2024-02-04T05:27:00;98800.0;;;4.6;66.4
78679;BME280;67994;59.334;13.528;2024-02-04T05:28:00;98800.0;;;4.6;66.5
78679;BME280;67994;59.334;13.528;2024-02-04T05:29:00;98800.0;;;4.7;66.1
78679;BME280;67994;59.334;13.528;2024-02-04T05:30:02;98800.0;;;4.8;66.0